sensor_id;sensor_type;location;lat;lon;timestamp;pressure;altitude;pressure_sealevel;temperature;humidity
7075;BME280;3578;51.568;6.932;2023-03-25T00:02:14;53045.66;;;-144.14;94.42
7075;BME280;3578;51.568;6.932;2023-03-25T00:04:41;53091.75;;;-144.14;93.59
7075;BME280;3578;51.568;6.932;2023-03-25T00:07:08;53065.69;;;-144.14;93.44
7075;BME280;3578;51.568;6.932;2023-03-25T00:09:36;53073.72;;;-144.14;93.32
7075;BME280;3578;51.568;6.932;2023-03-25T00:12:05;53109.78;;;-144.14;93.21
7075;BME280;3578;51.568;6.932;2023-03-25T00:14:32;53071.72;;;-144.14;93.08
7075;BME280;3578;51.568;6.932;2023-03-25T00:16:59;53061.69;;;-144.14;92.57
7075;BME280;3578;51.568;6.932;2023-03-25T00:19:27;53127.81;;;-144.14;92.35
7075;BME280;3578;51.568;6.932;2023-03-25T00:21:54;53109.78;;;-144.14;92.09
7075;BME280;3578;51.568;6.932;2023-03-25T00:24:21;53081.72;;;-144.14;92.23
7075;BME280;3578;51.568;6.932;2023-03-25T00:26:48;53119.81;;;-144.14;92.29
7075;BME280;3578;51.568;6.932;2023-03-25T00:29:16;53133.84;;;-144.14;91.80
7075;BME280;3578;51.568;6.932;2023-03-25T00:31:44;53147.88;;;-144.14;91.63
7075;BME280;3578;51.568;6.932;2023-03-25T00:34:11;53113.78;;;-144.14;92.45
7075;BME280;3578;51.568;6.932;2023-03-25T00:36:41;53095.75;;;-144.14;92.54
7075;BME280;3578;51.568;6.932;2023-03-25T00:39:09;53089.75;;;-144.14;92.66
7075;BME280;3578;51.568;6.932;2023-03-25T00:41:36;53079.72;;;-144.14;92.85
7075;BME280;3578;51.568;6.932;2023-03-25T00:44:08;53097.75;;;-144.14;92.94
7075;BME280;3578;51.568;6.932;2023-03-25T00:46:38;53081.72;;;-144.14;93.33
7075;BME280;3578;51.568;6.932;2023-03-25T00:49:05;53077.72;;;-144.14;93.34
7075;BME280;3578;51.568;6.932;2023-03-25T00:51:32;53065.69;;;-144.14;93.55
7075;BME280;3578;51.568;6.932;2023-03-25T00:53:59;53053.69;;;-144.14;93.53
7075;BME280;3578;51.568;6.932;2023-03-25T00:56:27;53077.72;;;-144.14;93.45
7075;BME280;3578;51.568;6.932;2023-03-25T00:58:55;53085.75;;;-144.14;93.56
7075;BME280;3578;51.568;6.932;2023-03-25T01:01:24;53069.72;;;-144.14;93.17
7075;BME280;3578;51.568;6.932;2023-03-25T01:03:56;53093.75;;;-144.14;93.03
7075;BME280;3578;51.568;6.932;2023-03-25T01:06:28;53077.72;;;-144.14;93.10
7075;BME280;3578;51.568;6.932;2023-03-25T01:08:58;53113.78;;;-144.14;93.07
7075;BME280;3578;51.568;6.932;2023-03-25T01:11:28;53097.75;;;-144.14;93.03
7075;BME280;3578;51.568;6.932;2023-03-25T01:13:59;53065.69;;;-144.14;93.11
7075;BME280;3578;51.568;6.932;2023-03-25T01:16:28;53075.72;;;-144.14;92.86
7075;BME280;3578;51.568;6.932;2023-03-25T01:18:56;53083.72;;;-144.14;92.06
7075;BME280;3578;51.568;6.932;2023-03-25T01:21:23;53153.88;;;-144.14;92.19
7075;BME280;3578;51.568;6.932;2023-03-25T01:23:50;53105.78;;;-144.14;92.35
7075;BME280;3578;51.568;6.932;2023-03-25T01:26:17;53107.78;;;-144.14;92.70
7075;BME280;3578;51.568;6.932;2023-03-25T01:28:45;53125.81;;;-144.14;92.52
7075;BME280;3578;51.568;6.932;2023-03-25T01:31:13;53111.78;;;-144.14;92.59
7075;BME280;3578;51.568;6.932;2023-03-25T01:33:40;53113.78;;;-144.14;92.62
7075;BME280;3578;51.568;6.932;2023-03-25T01:36:10;53097.75;;;-144.14;92.39
7075;BME280;3578;51.568;6.932;2023-03-25T01:38:37;53137.84;;;-144.14;92.54
7075;BME280;3578;51.568;6.932;2023-03-25T01:41:05;53167.91;;;-144.14;91.62
7075;BME280;3578;51.568;6.932;2023-03-25T01:43:33;53133.84;;;-144.14;91.79
7075;BME280;3578;51.568;6.932;2023-03-25T01:46:00;53107.78;;;-144.14;92.25
7075;BME280;3578;51.568;6.932;2023-03-25T01:48:32;53125.81;;;-144.14;92.19
7075;BME280;3578;51.568;6.932;2023-03-25T01:51:09;53129.81;;;-144.14;92.45
7075;BME280;3578;51.568;6.932;2023-03-25T01:53:38;53079.72;;;-144.14;92.53
7075;BME280;3578;51.568;6.932;2023-03-25T01:56:08;53099.78;;;-144.14;92.43
7075;BME280;3578;51.568;6.932;2023-03-25T01:58:38;53109.78;;;-144.14;92.41
7075;BME280;3578;51.568;6.932;2023-03-25T02:01:06;53129.81;;;-144.14;92.80
7075;BME280;3578;51.568;6.932;2023-03-25T02:03:38;53149.88;;;-144.14;92.56
7075;BME280;3578;51.568;6.932;2023-03-25T02:06:16;53153.88;;;-144.14;91.80
7075;BME280;3578;51.568;6.932;2023-03-25T02:08:45;53141.84;;;-144.14;90.75
7075;BME280;3578;51.568;6.932;2023-03-25T02:11:12;53175.91;;;-144.14;90.48
7075;BME280;3578;51.568;6.932;2023-03-25T02:13:40;53193.97;;;-144.14;90.25
7075;BME280;3578;51.568;6.932;2023-03-25T02:16:19;53187.94;;;-144.14;89.92
7075;BME280;3578;51.568;6.932;2023-03-25T02:19:04;53177.94;;;-144.14;89.84
7075;BME280;3578;51.568;6.932;2023-03-25T02:22:19;53147.88;;;-144.14;89.92
7075;BME280;3578;51.568;6.932;2023-03-25T02:25:04;53141.84;;;-144.14;89.85
7075;BME280;3578;51.568;6.932;2023-03-25T02:27:51;53181.94;;;-144.14;89.34
7075;BME280;3578;51.568;6.932;2023-03-25T02:37:17;53169.91;;;-144.14;89.29
7075;BME280;3578;51.568;6.932;2023-03-25T02:39:55;53163.91;;;-144.14;88.60
7075;BME280;3578;51.568;6.932;2023-03-25T02:42:32;53175.91;;;-144.14;88.69
7075;BME280;3578;51.568;6.932;2023-03-25T02:45:04;53185.94;;;-144.14;88.93
7075;BME280;3578;51.568;6.932;2023-03-25T02:47:35;53181.94;;;-144.14;87.88
7075;BME280;3578;51.568;6.932;2023-03-25T02:50:08;53169.91;;;-144.14;88.79
7075;BME280;3578;51.568;6.932;2023-03-25T02:52:38;53135.84;;;-144.14;88.55
7075;BME280;3578;51.568;6.932;2023-03-25T02:55:10;53171.91;;;-144.14;89.47
7075;BME280;3578;51.568;6.932;2023-03-25T02:57:42;53161.91;;;-144.14;88.67
7075;BME280;3578;51.568;6.932;2023-03-25T03:00:12;53151.88;;;-144.14;89.55
7075;BME280;3578;51.568;6.932;2023-03-25T03:02:44;53193.97;;;-144.14;88.99
7075;BME280;3578;51.568;6.932;2023-03-25T03:05:23;53214.00;;;-144.14;88.91
7075;BME280;3578;51.568;6.932;2023-03-25T03:07:59;53159.88;;;-144.14;88.95
7075;BME280;3578;51.568;6.932;2023-03-25T03:10:39;53173.91;;;-144.14;89.04
7075;BME280;3578;51.568;6.932;2023-03-25T03:13:18;53177.94;;;-144.14;88.69
7075;BME280;3578;51.568;6.932;2023-03-25T03:15:55;53189.94;;;-144.14;89.11
7075;BME280;3578;51.568;6.932;2023-03-25T03:18:35;53183.94;;;-144.14;89.22
7075;BME280;3578;51.568;6.932;2023-03-25T03:21:13;53171.91;;;-144.14;89.04
7075;BME280;3578;51.568;6.932;2023-03-25T03:23:50;53175.91;;;-144.14;88.92
7075;BME280;3578;51.568;6.932;2023-03-25T03:26:30;53157.88;;;-144.14;89.41
7075;BME280;3578;51.568;6.932;2023-03-25T03:29:06;53153.88;;;-144.14;89.69
7075;BME280;3578;51.568;6.932;2023-03-25T03:31:39;53155.88;;;-144.14;89.49
7075;BME280;3578;51.568;6.932;2023-03-25T03:34:12;53167.91;;;-144.14;89.48
7075;BME280;3578;51.568;6.932;2023-03-25T03:36:44;53127.81;;;-144.14;90.06
7075;BME280;3578;51.568;6.932;2023-03-25T03:39:18;53181.94;;;-144.14;89.38
7075;BME280;3578;51.568;6.932;2023-03-25T03:41:52;53157.88;;;-144.14;89.56
7075;BME280;3578;51.568;6.932;2023-03-25T03:44:26;53163.91;;;-144.14;89.99
7075;BME280;3578;51.568;6.932;2023-03-25T03:46:59;53149.88;;;-144.14;90.05
7075;BME280;3578;51.568;6.932;2023-03-25T03:49:32;53135.84;;;-144.14;90.31
7075;BME280;3578;51.568;6.932;2023-03-25T03:52:07;53185.94;;;-144.14;90.10
7075;BME280;3578;51.568;6.932;2023-03-25T03:54:41;53167.91;;;-144.14;90.18
7075;BME280;3578;51.568;6.932;2023-03-25T03:57:16;53137.84;;;-144.14;90.15
7075;BME280;3578;51.568;6.932;2023-03-25T03:59:52;53159.88;;;-144.14;90.11
7075;BME280;3578;51.568;6.932;2023-03-25T04:02:27;53125.81;;;-144.14;90.81
7075;BME280;3578;51.568;6.932;2023-03-25T04:04:57;53165.91;;;-144.14;90.16
7075;BME280;3578;51.568;6.932;2023-03-25T04:07:32;53137.84;;;-144.14;91.56
7075;BME280;3578;51.568;6.932;2023-03-25T04:10:11;53155.88;;;-144.14;92.01
7075;BME280;3578;51.568;6.932;2023-03-25T04:12:44;53131.84;;;-144.14;91.80
7075;BME280;3578;51.568;6.932;2023-03-25T04:15:13;53097.75;;;-144.14;92.01
7075;BME280;3578;51.568;6.932;2023-03-25T04:17:41;53135.84;;;-144.14;92.14
7075;BME280;3578;51.568;6.932;2023-03-25T04:20:11;53105.78;;;-144.14;91.88
7075;BME280;3578;51.568;6.932;2023-03-25T04:22:39;53177.94;;;-144.14;91.28
7075;BME280;3578;51.568;6.932;2023-03-25T04:25:10;53131.84;;;-144.14;91.04
7075;BME280;3578;51.568;6.932;2023-03-25T04:27:38;53147.88;;;-144.14;90.90
7075;BME280;3578;51.568;6.932;2023-03-25T04:30:08;53101.78;;;-144.14;91.50
7075;BME280;3578;51.568;6.932;2023-03-25T04:32:35;53079.72;;;-144.14;92.61
7075;BME280;3578;51.568;6.932;2023-03-25T04:35:02;53107.78;;;-144.14;92.24
7075;BME280;3578;51.568;6.932;2023-03-25T04:37:29;53109.78;;;-144.14;92.25
7075;BME280;3578;51.568;6.932;2023-03-25T04:39:58;53117.81;;;-144.14;91.53
7075;BME280;3578;51.568;6.932;2023-03-25T04:42:26;53113.78;;;-144.14;91.31
7075;BME280;3578;51.568;6.932;2023-03-25T04:44:57;53119.81;;;-144.14;90.80
7075;BME280;3578;51.568;6.932;2023-03-25T04:47:26;53145.84;;;-144.14;91.57
7075;BME280;3578;51.568;6.932;2023-03-25T04:49:53;53143.84;;;-144.14;91.59
7075;BME280;3578;51.568;6.932;2023-03-25T04:52:20;53115.81;;;-144.14;91.16
7075;BME280;3578;51.568;6.932;2023-03-25T04:54:47;53143.84;;;-144.14;91.44
7075;BME280;3578;51.568;6.932;2023-03-25T04:57:14;53151.88;;;-144.14;91.52
7075;BME280;3578;51.568;6.932;2023-03-25T04:59:41;53115.81;;;-144.14;91.02
7075;BME280;3578;51.568;6.932;2023-03-25T05:02:10;53117.81;;;-144.14;91.04
7075;BME280;3578;51.568;6.932;2023-03-25T05:04:39;53121.81;;;-144.14;91.87
7075;BME280;3578;51.568;6.932;2023-03-25T05:07:07;53137.84;;;-144.14;92.70
7075;BME280;3578;51.568;6.932;2023-03-25T05:09:34;53091.75;;;-144.14;94.35
7075;BME280;3578;51.568;6.932;2023-03-25T05:12:02;53059.69;;;-144.14;95.07
7075;BME280;3578;51.568;6.932;2023-03-25T05:14:29;53049.66;;;-144.14;95.63
7075;BME280;3578;51.568;6.932;2023-03-25T05:16:55;53033.63;;;-144.14;95.59
7075;BME280;3578;51.568;6.932;2023-03-25T05:19:24;53057.69;;;-144.14;96.10
7075;BME280;3578;51.568;6.932;2023-03-25T05:21:54;53031.63;;;-144.14;96.09
7075;BME280;3578;51.568;6.932;2023-03-25T05:24:21;53013.59;;;-144.14;95.66
7075;BME280;3578;51.568;6.932;2023-03-25T05:26:48;53041.66;;;-144.14;95.02
7075;BME280;3578;51.568;6.932;2023-03-25T05:29:16;53039.66;;;-144.14;94.53
7075;BME280;3578;51.568;6.932;2023-03-25T05:31:45;53073.72;;;-144.14;93.45
7075;BME280;3578;51.568;6.932;2023-03-25T05:34:13;53081.72;;;-144.14;92.91
7075;BME280;3578;51.568;6.932;2023-03-25T05:36:41;53063.69;;;-144.14;92.62
7075;BME280;3578;51.568;6.932;2023-03-25T05:39:10;53111.78;;;-144.14;91.93
7075;BME280;3578;51.568;6.932;2023-03-25T05:41:37;53097.75;;;-144.14;91.68
7075;BME280;3578;51.568;6.932;2023-03-25T05:44:04;53091.75;;;-144.14;91.28
7075;BME280;3578;51.568;6.932;2023-03-25T05:46:32;53141.84;;;-144.14;91.23
7075;BME280;3578;51.568;6.932;2023-03-25T05:49:00;53143.84;;;-144.14;91.08
7075;BME280;3578;51.568;6.932;2023-03-25T05:51:28;53113.78;;;-144.14;91.03
7075;BME280;3578;51.568;6.932;2023-03-25T05:53:58;53149.88;;;-144.14;90.89
7075;BME280;3578;51.568;6.932;2023-03-25T05:56:30;53149.88;;;-144.14;91.07
7075;BME280;3578;51.568;6.932;2023-03-25T05:58:57;53149.88;;;-144.14;91.09
7075;BME280;3578;51.568;6.932;2023-03-25T06:01:25;53131.84;;;-144.14;90.99
7075;BME280;3578;51.568;6.932;2023-03-25T06:03:53;53139.84;;;-144.14;90.22
7075;BME280;3578;51.568;6.932;2023-03-25T06:06:22;53187.94;;;-144.14;90.04
7075;BME280;3578;51.568;6.932;2023-03-25T06:08:51;53185.94;;;-144.14;89.74
7075;BME280;3578;51.568;6.932;2023-03-25T06:11:21;53183.94;;;-144.14;89.21
7075;BME280;3578;51.568;6.932;2023-03-25T06:13:50;53197.97;;;-144.14;89.25
7075;BME280;3578;51.568;6.932;2023-03-25T06:16:19;53203.97;;;-144.14;89.89
7075;BME280;3578;51.568;6.932;2023-03-25T06:18:49;53210.00;;;-144.14;89.43
7075;BME280;3578;51.568;6.932;2023-03-25T06:21:21;53197.97;;;-144.14;89.07
7075;BME280;3578;51.568;6.932;2023-03-25T06:23:49;53216.00;;;-144.14;88.58
7075;BME280;3578;51.568;6.932;2023-03-25T06:26:16;53195.97;;;-144.14;88.36
7075;BME280;3578;51.568;6.932;2023-03-25T06:28:43;53214.00;;;-144.14;88.05
7075;BME280;3578;51.568;6.932;2023-03-25T06:31:12;53226.03;;;-144.14;88.84
7075;BME280;3578;51.568;6.932;2023-03-25T06:33:41;53244.06;;;-144.14;88.72
7075;BME280;3578;51.568;6.932;2023-03-25T06:36:09;53232.03;;;-144.14;88.43
7075;BME280;3578;51.568;6.932;2023-03-25T06:38:37;53234.03;;;-144.14;88.08
7075;BME280;3578;51.568;6.932;2023-03-25T06:41:05;53228.03;;;-144.14;88.53
7075;BME280;3578;51.568;6.932;2023-03-25T06:43:33;53224.03;;;-144.14;88.06
7075;BME280;3578;51.568;6.932;2023-03-25T06:46:00;53278.13;;;-144.14;87.57
7075;BME280;3578;51.568;6.932;2023-03-25T06:48:28;53203.97;;;-144.14;88.01
7075;BME280;3578;51.568;6.932;2023-03-25T06:50:55;53258.09;;;-144.14;87.40
7075;BME280;3578;51.568;6.932;2023-03-25T06:53:22;53278.13;;;-144.14;87.03
7075;BME280;3578;51.568;6.932;2023-03-25T06:55:49;53326.22;;;-144.14;86.22
7075;BME280;3578;51.568;6.932;2023-03-25T06:58:16;53278.13;;;-144.14;86.68
7075;BME280;3578;51.568;6.932;2023-03-25T07:00:43;53342.25;;;-144.14;84.35
7075;BME280;3578;51.568;6.932;2023-03-25T07:03:11;53328.22;;;-144.14;85.40
7075;BME280;3578;51.568;6.932;2023-03-25T07:05:41;53304.19;;;-144.14;85.57
7075;BME280;3578;51.568;6.932;2023-03-25T07:08:08;53296.16;;;-144.14;86.05
7075;BME280;3578;51.568;6.932;2023-03-25T07:10:35;53336.25;;;-144.14;86.68
7075;BME280;3578;51.568;6.932;2023-03-25T07:13:02;53330.25;;;-144.14;86.72
7075;BME280;3578;51.568;6.932;2023-03-25T07:15:29;53338.25;;;-144.14;86.41
7075;BME280;3578;51.568;6.932;2023-03-25T07:17:56;53346.28;;;-144.14;85.61
7075;BME280;3578;51.568;6.932;2023-03-25T07:20:23;53368.31;;;-144.14;85.72
7075;BME280;3578;51.568;6.932;2023-03-25T07:22:52;53406.41;;;-144.14;84.50
7075;BME280;3578;51.568;6.932;2023-03-25T07:25:19;53416.41;;;-144.14;83.22
7075;BME280;3578;51.568;6.932;2023-03-25T07:27:47;53418.41;;;-144.14;83.66
7075;BME280;3578;51.568;6.932;2023-03-25T07:30:14;53416.41;;;-144.14;83.69
7075;BME280;3578;51.568;6.932;2023-03-25T07:32:43;53400.38;;;-144.14;84.32
7075;BME280;3578;51.568;6.932;2023-03-25T07:35:10;53338.25;;;-144.14;85.37
7075;BME280;3578;51.568;6.932;2023-03-25T07:37:38;53354.28;;;-144.14;85.20
7075;BME280;3578;51.568;6.932;2023-03-25T07:40:09;53290.16;;;-144.14;86.93
7075;BME280;3578;51.568;6.932;2023-03-25T07:42:36;53324.22;;;-144.14;86.27
7075;BME280;3578;51.568;6.932;2023-03-25T07:45:04;53286.16;;;-144.14;87.42
7075;BME280;3578;51.568;6.932;2023-03-25T07:47:32;53310.19;;;-144.14;86.94
7075;BME280;3578;51.568;6.932;2023-03-25T07:49:59;53270.13;;;-144.14;87.49
7075;BME280;3578;51.568;6.932;2023-03-25T07:52:26;53306.19;;;-144.14;87.50
7075;BME280;3578;51.568;6.932;2023-03-25T07:54:53;53336.25;;;-144.14;87.01
7075;BME280;3578;51.568;6.932;2023-03-25T07:57:21;53386.34;;;-144.14;86.38
7075;BME280;3578;51.568;6.932;2023-03-25T07:59:48;53350.28;;;-144.14;85.34
7075;BME280;3578;51.568;6.932;2023-03-25T08:02:15;53388.34;;;-144.14;84.46
7075;BME280;3578;51.568;6.932;2023-03-25T08:04:42;53416.41;;;-144.14;83.97
7075;BME280;3578;51.568;6.932;2023-03-25T08:07:09;53442.47;;;-144.14;81.86
7075;BME280;3578;51.568;6.932;2023-03-25T08:09:36;53434.44;;;-144.14;82.52
7075;BME280;3578;51.568;6.932;2023-03-25T08:12:03;53442.47;;;-144.14;81.29
7075;BME280;3578;51.568;6.932;2023-03-25T08:14:31;53462.50;;;-144.14;81.56
7075;BME280;3578;51.568;6.932;2023-03-25T08:16:58;53364.31;;;-144.14;83.37
7075;BME280;3578;51.568;6.932;2023-03-25T08:19:26;53442.47;;;-144.14;81.90
7075;BME280;3578;51.568;6.932;2023-03-25T08:21:53;53496.59;;;-144.14;80.58
7075;BME280;3578;51.568;6.932;2023-03-25T08:24:20;53502.59;;;-144.14;80.13
7075;BME280;3578;51.568;6.932;2023-03-25T08:26:49;53462.50;;;-144.14;79.65
7075;BME280;3578;51.568;6.932;2023-03-25T08:29:16;53432.44;;;-144.14;80.80
7075;BME280;3578;51.568;6.932;2023-03-25T08:31:46;53438.47;;;-144.14;78.71
7075;BME280;3578;51.568;6.932;2023-03-25T08:34:18;53464.50;;;-144.14;80.02
7075;BME280;3578;51.568;6.932;2023-03-25T08:36:45;53502.59;;;-144.14;78.60
7075;BME280;3578;51.568;6.932;2023-03-25T08:39:12;53468.53;;;-144.14;79.64
7075;BME280;3578;51.568;6.932;2023-03-25T08:41:42;53506.59;;;-144.14;77.88
7075;BME280;3578;51.568;6.932;2023-03-25T08:44:10;53550.69;;;-144.14;76.61
7075;BME280;3578;51.568;6.932;2023-03-25T08:46:37;53534.66;;;-144.14;74.58
7075;BME280;3578;51.568;6.932;2023-03-25T08:49:05;53540.69;;;-144.14;75.10
7075;BME280;3578;51.568;6.932;2023-03-25T08:51:32;53550.69;;;-144.14;76.79
7075;BME280;3578;51.568;6.932;2023-03-25T08:53:59;53482.56;;;-144.14;78.46
7075;BME280;3578;51.568;6.932;2023-03-25T08:56:26;53460.50;;;-144.14;80.13
7075;BME280;3578;51.568;6.932;2023-03-25T08:58:53;53442.47;;;-144.14;81.08
7075;BME280;3578;51.568;6.932;2023-03-25T09:01:20;53446.47;;;-144.14;81.96
7075;BME280;3578;51.568;6.932;2023-03-25T09:03:49;53462.50;;;-144.14;80.87
7075;BME280;3578;51.568;6.932;2023-03-25T09:06:18;53452.50;;;-144.14;80.84
7075;BME280;3578;51.568;6.932;2023-03-25T09:08:45;53438.47;;;-144.14;82.17
7075;BME280;3578;51.568;6.932;2023-03-25T09:11:12;53434.44;;;-144.14;82.06
7075;BME280;3578;51.568;6.932;2023-03-25T09:13:40;53462.50;;;-144.14;81.90
7075;BME280;3578;51.568;6.932;2023-03-25T09:16:08;53418.41;;;-144.14;82.69
7075;BME280;3578;51.568;6.932;2023-03-25T09:18:35;53436.47;;;-144.14;81.58
7075;BME280;3578;51.568;6.932;2023-03-25T09:21:03;53478.53;;;-144.14;81.22
7075;BME280;3578;51.568;6.932;2023-03-25T09:23:32;53578.75;;;-144.14;79.35
7075;BME280;3578;51.568;6.932;2023-03-25T09:26:01;53586.78;;;-144.14;77.86
7075;BME280;3578;51.568;6.932;2023-03-25T09:28:30;53586.78;;;-144.14;78.55
7075;BME280;3578;51.568;6.932;2023-03-25T09:30:57;53584.78;;;-144.14;78.69
7075;BME280;3578;51.568;6.932;2023-03-25T09:33:24;53594.78;;;-144.14;80.50
7075;BME280;3578;51.568;6.932;2023-03-25T09:35:52;53538.69;;;-144.14;83.09
7075;BME280;3578;51.568;6.932;2023-03-25T09:38:19;53510.63;;;-144.14;83.50
7075;BME280;3578;51.568;6.932;2023-03-25T09:40:48;53424.44;;;-144.14;87.51
7075;BME280;3578;51.568;6.932;2023-03-25T09:43:37;53400.38;;;-144.14;90.52
7075;BME280;3578;51.568;6.932;2023-03-25T09:46:09;53358.28;;;-144.14;91.70
7075;BME280;3578;51.568;6.932;2023-03-25T09:48:37;53320.22;;;-144.14;92.95
7075;BME280;3578;51.568;6.932;2023-03-25T09:51:11;53324.22;;;-144.14;93.67
7075;BME280;3578;51.568;6.932;2023-03-25T09:53:45;53242.06;;;-144.14;94.20
7075;BME280;3578;51.568;6.932;2023-03-25T09:56:18;53262.09;;;-144.14;94.25
7075;BME280;3578;51.568;6.932;2023-03-25T09:58:49;53274.13;;;-144.14;94.53
7075;BME280;3578;51.568;6.932;2023-03-25T10:01:36;53250.06;;;-144.14;95.83
7075;BME280;3578;51.568;6.932;2023-03-25T10:04:44;53216.00;;;-144.14;95.99
7075;BME280;3578;51.568;6.932;2023-03-25T10:07:30;53189.94;;;-144.14;96.94
7075;BME280;3578;51.568;6.932;2023-03-25T10:10:06;53133.84;;;-144.14;97.91
7075;BME280;3578;51.568;6.932;2023-03-25T10:12:43;53159.88;;;-144.14;97.51
7075;BME280;3578;51.568;6.932;2023-03-25T10:15:26;53145.84;;;-144.14;98.15
7075;BME280;3578;51.568;6.932;2023-03-25T10:18:16;53165.91;;;-144.14;98.12
7075;BME280;3578;51.568;6.932;2023-03-25T10:20:51;53167.91;;;-144.14;97.85
7075;BME280;3578;51.568;6.932;2023-03-25T10:23:33;53224.03;;;-144.14;97.10
7075;BME280;3578;51.568;6.932;2023-03-25T10:26:09;53232.03;;;-144.14;96.80
7075;BME280;3578;51.568;6.932;2023-03-25T10:28:44;53302.19;;;-144.14;94.81
7075;BME280;3578;51.568;6.932;2023-03-25T10:31:16;53374.31;;;-144.14;94.52
7075;BME280;3578;51.568;6.932;2023-03-25T10:33:51;53318.22;;;-144.14;94.11
7075;BME280;3578;51.568;6.932;2023-03-25T10:36:29;53296.16;;;-144.14;94.56
7075;BME280;3578;51.568;6.932;2023-03-25T10:38:58;53250.06;;;-144.14;93.12
7075;BME280;3578;51.568;6.932;2023-03-25T10:41:31;53248.06;;;-144.14;93.58
7075;BME280;3578;51.568;6.932;2023-03-25T10:44:07;53205.97;;;-144.14;94.97
7075;BME280;3578;51.568;6.932;2023-03-25T10:46:37;53248.06;;;-144.14;94.61
7075;BME280;3578;51.568;6.932;2023-03-25T10:49:14;53230.03;;;-144.14;95.08
7075;BME280;3578;51.568;6.932;2023-03-25T10:51:42;53203.97;;;-144.14;96.00
7075;BME280;3578;51.568;6.932;2023-03-25T10:54:10;53195.97;;;-144.14;95.64
7075;BME280;3578;51.568;6.932;2023-03-25T10:56:43;53210.00;;;-144.14;95.85
7075;BME280;3578;51.568;6.932;2023-03-25T10:59:22;53222.00;;;-144.14;96.23
7075;BME280;3578;51.568;6.932;2023-03-25T11:01:52;53181.94;;;-144.14;96.58
7075;BME280;3578;51.568;6.932;2023-03-25T11:04:26;53133.84;;;-144.14;96.78
7075;BME280;3578;51.568;6.932;2023-03-25T11:06:57;53145.84;;;-144.14;97.89
7075;BME280;3578;51.568;6.932;2023-03-25T11:09:27;53121.81;;;-144.14;97.61
7075;BME280;3578;51.568;6.932;2023-03-25T11:11:59;53165.91;;;-144.14;97.60
7075;BME280;3578;51.568;6.932;2023-03-25T11:14:29;53185.94;;;-144.14;96.09
7075;BME280;3578;51.568;6.932;2023-03-25T11:16:59;53189.94;;;-144.14;95.65
7075;BME280;3578;51.568;6.932;2023-03-25T11:19:30;53246.06;;;-144.14;94.55
7075;BME280;3578;51.568;6.932;2023-03-25T11:22:02;53226.03;;;-144.14;94.51
7075;BME280;3578;51.568;6.932;2023-03-25T11:24:39;53193.97;;;-144.14;94.24
7075;BME280;3578;51.568;6.932;2023-03-25T11:27:07;53230.03;;;-144.14;95.22
7075;BME280;3578;51.568;6.932;2023-03-25T11:29:37;53208.00;;;-144.14;95.88
7075;BME280;3578;51.568;6.932;2023-03-25T11:32:07;53242.06;;;-144.14;96.09
7075;BME280;3578;51.568;6.932;2023-03-25T11:34:39;53292.16;;;-144.14;95.23
7075;BME280;3578;51.568;6.932;2023-03-25T11:37:16;53310.19;;;-144.14;94.24
7075;BME280;3578;51.568;6.932;2023-03-25T11:39:49;53346.28;;;-144.14;93.71
7075;BME280;3578;51.568;6.932;2023-03-25T11:42:29;53342.25;;;-144.14;93.20
7075;BME280;3578;51.568;6.932;2023-03-25T11:45:00;53398.38;;;-144.14;90.94
7075;BME280;3578;51.568;6.932;2023-03-25T11:47:31;53390.34;;;-144.14;90.81
7075;BME280;3578;51.568;6.932;2023-03-25T11:50:00;53456.50;;;-144.14;89.71
7075;BME280;3578;51.568;6.932;2023-03-25T11:52:35;53454.50;;;-144.14;88.69
7075;BME280;3578;51.568;6.932;2023-03-25T11:55:06;53482.56;;;-144.14;89.19
7075;BME280;3578;51.568;6.932;2023-03-25T11:57:40;53510.63;;;-144.14;88.15
7075;BME280;3578;51.568;6.932;2023-03-25T12:00:30;53530.66;;;-144.14;86.56
7075;BME280;3578;51.568;6.932;2023-03-25T12:03:01;53516.63;;;-144.14;82.88
7075;BME280;3578;51.568;6.932;2023-03-25T12:05:29;53556.72;;;-144.14;82.85
7075;BME280;3578;51.568;6.932;2023-03-25T12:08:10;53520.63;;;-144.14;83.75
7075;BME280;3578;51.568;6.932;2023-03-25T12:10:53;53538.69;;;-144.14;82.78
7075;BME280;3578;51.568;6.932;2023-03-25T12:13:31;53564.72;;;-144.14;82.69
7075;BME280;3578;51.568;6.932;2023-03-25T12:16:17;53526.66;;;-144.14;83.69
7075;BME280;3578;51.568;6.932;2023-03-25T12:19:03;53528.66;;;-144.14;83.06
7075;BME280;3578;51.568;6.932;2023-03-25T12:21:46;53614.84;;;-144.14;82.95
7075;BME280;3578;51.568;6.932;2023-03-25T12:24:32;53672.97;;;-144.14;80.37
7075;BME280;3578;51.568;6.932;2023-03-25T12:27:14;53642.91;;;-144.14;81.87
7075;BME280;3578;51.568;6.932;2023-03-25T12:29:50;53759.16;;;-144.14;77.66
7075;BME280;3578;51.568;6.932;2023-03-25T12:32:30;53789.22;;;-144.14;73.40
7075;BME280;3578;51.568;6.932;2023-03-25T12:35:22;53739.09;;;-144.14;74.31
7075;BME280;3578;51.568;6.932;2023-03-25T12:38:19;53763.16;;;-144.14;73.95
7075;BME280;3578;51.568;6.932;2023-03-25T12:41:07;53737.09;;;-144.14;75.87
7075;BME280;3578;51.568;6.932;2023-03-25T12:43:55;53725.06;;;-144.14;75.57
7075;BME280;3578;51.568;6.932;2023-03-25T12:46:39;53709.03;;;-144.14;78.39
7075;BME280;3578;51.568;6.932;2023-03-25T12:49:29;53733.09;;;-144.14;77.63
7075;BME280;3578;51.568;6.932;2023-03-25T12:52:06;53695.00;;;-144.14;74.79
7075;BME280;3578;51.568;6.932;2023-03-25T12:54:53;53743.13;;;-144.14;75.93
7075;BME280;3578;51.568;6.932;2023-03-25T12:57:36;53711.03;;;-144.14;76.93
7075;BME280;3578;51.568;6.932;2023-03-25T13:00:28;53747.13;;;-144.14;75.31
7075;BME280;3578;51.568;6.932;2023-03-25T13:03:26;53755.13;;;-144.14;75.27
7075;BME280;3578;51.568;6.932;2023-03-25T13:06:07;53721.06;;;-144.14;75.64
7075;BME280;3578;51.568;6.932;2023-03-25T13:08:45;53787.22;;;-144.14;75.43
7075;BME280;3578;51.568;6.932;2023-03-25T13:11:19;53813.28;;;-144.14;70.85
7075;BME280;3578;51.568;6.932;2023-03-25T13:13:51;53767.16;;;-144.14;69.23
7075;BME280;3578;51.568;6.932;2023-03-25T13:16:23;53763.16;;;-144.14;68.22
7075;BME280;3578;51.568;6.932;2023-03-25T13:18:59;53773.19;;;-144.14;73.53
7075;BME280;3578;51.568;6.932;2023-03-25T13:21:31;53819.28;;;-144.14;72.79
7075;BME280;3578;51.568;6.932;2023-03-25T13:24:04;53867.38;;;-144.14;70.08
7075;BME280;3578;51.568;6.932;2023-03-25T13:26:34;53853.34;;;-144.14;69.85
7075;BME280;3578;51.568;6.932;2023-03-25T13:29:04;53827.31;;;-144.14;70.95
7075;BME280;3578;51.568;6.932;2023-03-25T13:31:36;53819.28;;;-144.14;72.76